Butuan, Philippines
Current Conditions -  °F | °C
As of 10:00 PM on Friday 19 Dec 2014 (Local Time) from RPMD Reporting Station
Broken Clouds Broken Clouds  
Wind Chill: 77°   Ceiling: 29000
Heat Index: 78°   Visibility: 3mi
Dew Point: 75°   Wind: 5mph
Humidity: 94%   Direction: 10°N
Pressure: 29.88"   Gusts: NA
Location:  8.93°N, 125.52°E
Report Text: RPMD 191400Z 01004KT 5000 FEW016 BKN290 25/24 Q1012 RMK A2988
Loading
Personal Weather Stations






























Interactive Weather Map New forecast layout! Learn more

10-Day Weather Forecast

Advertisements
Track Severe Weather on mobile